Time;durP1;ratioP1;P1;durP2;ratioP2;P2;SDS_P1;SDS_P2;PMS_P1;PMS_P2;Temp;Humidity;BMP_temperature;BMP_pressure;BME280_temperature;BME280_humidity;BME280_pressure;Samples;Min_cycle;Max_cycle;Signal;HPM_P1;HPM_P2
2023/03/02 00:01:23;;;;;;;33.37;19.47;;;;;;;4.74;86.25;101398.41;4953131;28;20362;-76
2023/03/02 00:04:03;;;;;;;31.57;20.10;;;;;;;4.45;86.09;101358.69;4974092;28;20542;-76
2023/03/02 00:06:43;;;;;;;36.47;19.73;;;;;;;4.67;85.93;101384.72;4947099;28;20050;-76
2023/03/02 00:09:16;;;;;;;38.73;21.03;;;;;;;4.40;86.17;101328.31;4943198;28;20051;-77
2023/03/02 00:11:51;;;;;;;32.90;19.77;;;;;;;4.40;85.76;101318.63;4934352;28;20279;-77
2023/03/02 00:14:28;;;;;;;28.97;17.90;;;;;;;4.77;85.80;101395.63;4953064;28;20241;-78
2023/03/02 00:17:04;;;;;;;29.27;19.67;;;;;;;4.87;85.85;101385.47;4934200;28;20366;-77
2023/03/02 00:19:41;;;;;;;28.77;18.75;;;;;;;5.04;85.34;101388.06;4932138;28;20278;-78
2023/03/02 00:22:23;;;;;;;31.33;18.85;;;;;;;5.39;84.63;101393.22;4954720;28;20210;-80
2023/03/02 00:24:56;;;;;;;31.30;18.60;;;;;;;5.34;84.02;101404.00;4948568;28;20302;-78
2023/03/02 00:27:29;;;;;;;31.30;20.08;;;;;;;5.29;83.72;101399.91;4967897;28;20050;-78
2023/03/02 00:30:04;;;;;;;24.70;17.60;;;;;;;5.32;83.15;101392.69;4957318;28;20073;-77
2023/03/02 00:32:41;;;;;;;28.73;18.73;;;;;;;5.13;82.91;101350.72;4943619;28;20115;-78
2023/03/02 00:35:10;;;;;;;34.92;19.27;;;;;;;5.24;83.25;101386.13;4970843;28;20049;-75
2023/03/02 00:37:44;;;;;;;34.13;22.00;;;;;;;5.48;83.30;101389.22;5005431;28;20684;-75
2023/03/02 00:40:14;;;;;;;37.28;22.25;;;;;;;5.22;82.06;101348.50;4963164;28;20048;-78
2023/03/02 00:42:48;;;;;;;31.42;21.35;;;;;;;5.14;82.81;101373.47;4984623;28;20041;-77
2023/03/02 00:45:16;;;;;;;32.20;19.80;;;;;;;4.86;84.00;101329.38;4994499;28;20407;-75
2023/03/02 00:47:55;;;;;;;31.77;20.90;;;;;;;5.44;83.27;101385.06;4985536;28;20140;-77
2023/03/02 00:50:22;;;;;;;31.55;20.67;;;;;;;5.49;82.49;101393.56;4999735;28;20064;-76
2023/03/02 00:52:49;;;;;;;33.88;19.92;;;;;;;5.64;82.17;101397.97;4973013;28;20115;-75
2023/03/02 00:55:18;;;;;;;36.97;20.55;;;;;;;5.40;81.86;101378.25;4956877;28;20272;-77
2023/03/02 00:57:53;;;;;;;39.80;22.63;;;;;;;5.21;83.11;101368.72;4985126;28;20069;-76
2023/03/02 01:00:21;;;;;;;36.10;22.42;;;;;;;5.13;83.92;101373.56;4992229;28;20506;-79
2023/03/02 01:02:49;;;;;;;35.38;22.02;;;;;;;5.09;84.32;101380.75;5003174;28;20360;-76
2023/03/02 01:05:20;;;;;;;41.10;23.05;;;;;;;5.22;85.03;101373.06;4981721;28;20742;-75
2023/03/02 01:07:47;;;;;;;42.13;24.30;;;;;;;5.32;84.45;101371.63;5006047;28;20132;-76
2023/03/02 01:10:17;;;;;;;43.93;25.60;;;;;;;5.25;83.86;101343.94;4999123;28;20080;-76
2023/03/02 01:12:44;;;;;;;41.13;25.57;;;;;;;5.43;83.40;101349.13;4990687;28;20339;-76
2023/03/02 01:15:13;;;;;;;42.63;23.90;;;;;;;5.45;82.66;101365.69;5003878;28;20053;-77
2023/03/02 01:17:43;;;;;;;41.35;24.48;;;;;;;5.51;82.61;101360.06;5004650;28;20387;-75
2023/03/02 01:20:14;;;;;;;39.00;22.98;;;;;;;5.47;82.91;101362.03;4995337;28;20045;-77
2023/03/02 01:22:42;;;;;;;48.55;26.15;;;;;;;5.41;82.99;101365.00;5004029;28;20053;-76
2023/03/02 01:25:16;;;;;;;41.88;23.90;;;;;;;5.40;83.14;101346.66;4998662;28;20080;-78
2023/03/02 01:27:59;;;;;;;42.17;24.77;;;;;;;5.08;83.40;101315.06;4995385;28;20486;-75
2023/03/02 01:30:33;;;;;;;43.33;24.60;;;;;;;5.19;83.64;101354.78;4990296;28;20414;-75
2023/03/02 01:33:04;;;;;;;38.95;24.05;;;;;;;5.12;83.87;101346.41;4982188;28;20053;-79
2023/03/02 01:35:31;;;;;;;45.90;23.77;;;;;;;4.72;84.92;101288.00;4980338;28;20049;-78
2023/03/02 01:38:03;;;;;;;37.47;22.05;;;;;;;5.00;84.42;101327.78;4971259;28;20310;-77
2023/03/02 01:40:30;;;;;;;38.25;23.55;;;;;;;5.28;84.33;101353.44;4973708;28;20057;-74
2023/03/02 01:43:14;;;;;;;40.90;23.20;;;;;;;5.24;84.23;101325.59;4977339;28;20056;-77
2023/03/02 01:45:44;;;;;;;39.00;21.50;;;;;;;5.40;83.58;101341.41;4979573;28;20061;-78
2023/03/02 01:48:14;;;;;;;38.33;23.67;;;;;;;5.44;83.30;101348.19;4978623;28;20126;-77
2023/03/02 01:50:44;;;;;;;45.25;24.65;;;;;;;5.37;83.06;101309.97;4984897;28;20287;-75
2023/03/02 01:53:13;;;;;;;38.15;23.38;;;;;;;5.55;83.03;101340.53;4971211;28;20057;-77
2023/03/02 01:55:47;;;;;;;37.08;22.30;;;;;;;5.49;82.67;101318.03;4969213;28;20464;-76
2023/03/02 01:58:15;;;;;;;41.03;25.30;;;;;;;5.38;82.84;101294.06;4967759;28;20831;-76
2023/03/02 02:00:43;;;;;;;37.92;23.27;;;;;;;5.33;82.79;101306.66;4968864;28;20046;-76
2023/03/02 02:03:19;;;;;;;44.88;25.00;;;;;;;5.62;82.66;101320.81;4944652;28;20129;-77
2023/03/02 02:06:10;;;;;;;39.83;23.40;;;;;;;5.08;82.64;101257.16;4978285;28;20133;-77
2023/03/02 02:08:38;;;;;;;40.72;24.10;;;;;;;5.21;83.24;101289.75;4995722;28;20052;-77
2023/03/02 02:11:05;;;;;;;40.40;24.10;;;;;;;5.43;83.41;101330.69;4995428;28;20327;-76
2023/03/02 02:13:36;;;;;;;41.50;23.35;;;;;;;5.68;83.30;101325.75;4989809;28;20384;-77
2023/03/02 02:16:12;;;;;;;39.47;23.10;;;;;;;5.76;82.75;101338.47;4976884;28;20065;-78
2023/03/02 02:18:43;;;;;;;48.10;25.48;;;;;;;5.72;82.49;101336.94;4991160;28;20241;-78
2023/03/02 02:21:21;;;;;;;43.42;23.92;;;;;;;5.66;82.35;101335.53;4982020;28;20572;-76
2023/03/02 02:24:07;;;;;;;44.90;27.00;;;;;;;5.53;82.33;101331.88;4972325;28;20049;-78
2023/03/02 02:26:53;;;;;;;50.00;25.27;;;;;;;5.36;83.07;101324.91;4977784;28;20717;-75
2023/03/02 02:29:37;;;;;;;39.22;23.20;;;;;;;5.32;83.53;101329.50;4982454;28;20209;-76
2023/03/02 02:32:19;;;;;;;41.85;24.67;;;;;;;5.33;83.88;101330.34;4974147;28;20056;-78
2023/03/02 02:35:28;;;;;;;43.72;23.27;;;;;;;5.32;84.04;101329.50;4917324;28;20077;-77
2023/03/02 02:38:06;;;;;;;;;;;;;;;5.30;83.95;101328.72;4969403;28;20055;-75
2023/03/02 02:41:01;;;;;;;43.85;24.08;;;;;;;4.96;84.01;101285.00;4999029;28;20006;-78
2023/03/02 02:43:31;;;;;;;40.80;22.88;;;;;;;5.48;83.44;101311.06;4981368;28;20334;-78
2023/03/02 02:45:59;;;;;;;40.97;23.52;;;;;;;5.39;83.29;101308.09;4985319;28;20136;-76
2023/03/02 02:48:29;;;;;;;45.58;23.20;;;;;;;5.51;82.86;101321.44;4974752;28;20041;-75
2023/03/02 02:51:08;;;;;;;41.63;24.08;;;;;;;5.51;83.11;101316.16;4980008;28;20368;-75
2023/03/02 02:54:02;;;;;;;42.05;24.08;;;;;;;5.55;83.02;101311.56;4961676;28;20053;-77
2023/03/02 02:56:38;;;;;;;43.20;22.77;;;;;;;5.45;82.43;101302.50;4954694;28;20080;-77
2023/03/02 02:59:06;;;;;;;;;;;;;;;5.53;83.06;101316.06;4979250;28;20056;-76
2023/03/02 03:01:34;;;;;;;43.92;23.63;;;;;;;5.25;82.97;101293.91;4950854;28;20361;-77
2023/03/02 03:04:28;;;;;;;39.85;21.55;;;;;;;5.28;83.72;101285.84;4972014;28;20058;-78
2023/03/02 03:07:05;;;;;;;37.65;21.52;;;;;;;5.39;83.96;101302.81;4969970;28;20126;-75
2023/03/02 03:09:41;;;;;;;41.75;23.17;;;;;;;5.44;83.42;101306.06;4966033;28;20283;-77
2023/03/02 03:12:22;;;;;;;38.90;22.27;;;;;;;5.61;82.60;101300.69;4957111;28;20316;-77
2023/03/02 03:14:50;;;;;;;42.70;24.40;;;;;;;5.63;82.07;101296.19;4960931;28;20688;-77
2023/03/02 03:17:16;;;;;;;43.33;22.92;;;;;;;5.34;81.99;101274.97;4962918;28;20045;-77
2023/03/02 03:19:46;;;;;;;38.95;21.50;;;;;;;5.88;82.45;101311.44;4945618;28;20057;-78
2023/03/02 03:22:16;;;;;;;36.78;22.17;;;;;;;6.03;81.71;101296.53;4951929;28;20739;-77
2023/03/02 03:24:45;;;;;;;33.72;21.10;;;;;;;6.15;81.19;101319.53;4985167;28;20271;-77
2023/03/02 03:27:17;;;;;;;33.00;19.85;;;;;;;6.12;81.18;101310.97;4957920;28;20427;-78
2023/03/02 03:29:47;;;;;;;;;;;;;;;6.18;80.17;101314.06;4974218;28;20349;-78
2023/03/02 03:32:14;;;;;;;40.83;20.83;;;;;;;6.05;80.29;101313.13;4967042;28;19921;-77
2023/03/02 03:34:42;;;;;;;35.78;20.63;;;;;;;5.94;80.65;101315.50;4965823;28;20320;-77
2023/03/02 03:37:24;;;;;;;37.15;22.40;;;;;;;5.99;81.00;101313.47;4962624;28;20496;-78
2023/03/02 03:40:08;;;;;;;37.92;22.60;;;;;;;5.68;80.68;101245.84;4957568;28;20053;-79
2023/03/02 03:42:41;;;;;;;36.17;20.73;;;;;;;5.87;81.09;101303.59;4967476;28;20336;-77
2023/03/02 03:45:11;;;;;;;39.08;21.08;;;;;;;6.15;80.16;101318.69;4965161;28;20060;-76
2023/03/02 03:47:43;;;;;;;31.52;18.63;;;;;;;6.03;79.85;101314.16;4944254;28;20465;-76
2023/03/02 03:50:16;;;;;;;40.75;20.40;;;;;;;5.77;80.41;101287.47;4964973;28;20158;-78
2023/03/02 03:52:42;;;;;;;35.90;20.80;;;;;;;5.79;81.30;101302.25;4970683;28;20479;-77
2023/03/02 03:55:14;;;;;;;37.95;20.23;;;;;;;5.74;80.82;101309.56;4952460;28;20205;-79
2023/03/02 03:57:53;;;;;;;35.33;20.13;;;;;;;5.47;82.26;101285.66;4958316;28;20145;-78
2023/03/02 04:00:35;;;;;;;41.88;22.17;;;;;;;5.24;82.46;101265.91;4957304;28;20229;-76
2023/03/02 04:03:05;;;;;;;37.50;20.02;;;;;;;5.54;82.51;101296.72;4956461;28;20056;-76
2023/03/02 04:05:39;;;;;;;35.78;22.00;;;;;;;5.54;82.65;101294.06;4953169;28;20345;-78
2023/03/02 04:08:13;;;;;;;42.10;22.67;;;;;;;5.56;83.09;101306.22;4954450;28;20057;-76
2023/03/02 04:11:18;;;;;;;38.38;21.58;;;;;;;5.17;82.28;101240.00;4941087;28;20056;-76
2023/03/02 04:13:48;;;;;;;40.22;21.92;;;;;;;5.49;82.79;101288.22;4978132;28;20057;-77
2023/03/02 04:16:20;;;;;;;36.90;20.67;;;;;;;4.90;82.38;101191.47;4942431;28;20410;-79
2023/03/02 04:18:50;;;;;;;35.60;20.02;;;;;;;5.49;82.38;101293.50;4931126;28;20275;-77
2023/03/02 04:21:23;;;;;;;41.03;22.75;;;;;;;5.40;82.55;101286.09;4948056;28;20359;-76
2023/03/02 04:23:49;;;;;;;38.47;21.58;;;;;;;5.58;81.76;101274.50;4965476;28;20280;-76
2023/03/02 04:26:19;;;;;;;37.88;21.25;;;;;;;5.44;81.41;101279.75;4964851;28;20525;-78
2023/03/02 04:28:50;;;;;;;36.20;20.75;;;;;;;5.57;81.73;101300.00;4921204;28;20272;-79
2023/03/02 04:31:23;;;;;;;36.67;20.17;;;;;;;5.63;81.44;101293.56;4953290;28;20099;-79
2023/03/02 04:34:03;;;;;;;34.65;20.85;;;;;;;5.66;81.60;101301.28;4954865;28;20053;-77
2023/03/02 04:36:39;;;;;;;;;;;;;;;5.82;81.29;101317.03;4979405;28;20682;-78
2023/03/02 04:39:12;;;;;;;34.17;19.50;;;;;;;5.73;81.14;101322.84;4954751;28;19971;-77
2023/03/02 04:41:48;;;;;;;35.47;19.50;;;;;;;5.52;81.37;101298.56;4981893;28;20056;-79
2023/03/02 04:44:22;;;;;;;31.55;18.35;;;;;;;5.14;81.52;101264.69;4993105;28;20041;-78
2023/03/02 04:46:49;;;;;;;32.50;19.13;;;;;;;5.53;81.86;101337.13;4993572;28;20455;-77
2023/03/02 04:49:18;;;;;;;35.45;20.63;;;;;;;5.31;81.90;101303.25;4997916;28;20083;-78
2023/03/02 04:51:47;;;;;;;35.47;20.20;;;;;;;5.48;82.29;101333.91;4966184;28;20777;-77
2023/03/02 04:54:18;;;;;;;38.75;21.85;;;;;;;5.39;82.82;101329.16;4974033;28;20629;-76
2023/03/02 04:56:47;;;;;;;34.67;20.08;;;;;;;5.34;82.52;101327.66;4975943;28;20335;-76
2023/03/02 04:59:15;;;;;;;32.20;18.63;;;;;;;5.14;82.58;101305.03;4953200;28;20664;-78
2023/03/02 05:01:43;;;;;;;36.92;21.42;;;;;;;5.17;83.34;101308.44;4981577;28;20049;-78
2023/03/02 05:04:14;;;;;;;39.13;21.88;;;;;;;5.28;83.69;101327.97;4971509;28;20057;-78
2023/03/02 05:06:41;;;;;;;40.33;20.27;;;;;;;5.03;82.89;101281.09;4981159;28;20332;-78
2023/03/02 05:09:08;;;;;;;37.10;19.60;;;;;;;5.32;82.96;101329.50;4969393;28;20054;-77
2023/03/02 05:11:36;;;;;;;36.03;19.77;;;;;;;5.23;83.24;101316.84;4970632;28;20072;-77
2023/03/02 05:14:09;;;;;;;37.53;20.27;;;;;;;5.27;83.86;101326.28;4980391;28;20417;-78
2023/03/02 05:16:38;;;;;;;37.20;20.15;;;;;;;4.86;83.75;101258.34;4957218;28;20391;-78
2023/03/02 05:19:08;;;;;;;38.58;21.42;;;;;;;4.98;83.94;101283.13;4987932;28;20290;-80
2023/03/02 05:21:37;;;;;;;35.55;21.08;;;;;;;5.18;84.02;101321.50;4943248;28;20461;-78
2023/03/02 05:24:08;;;;;;;35.83;20.77;;;;;;;4.96;83.92;101278.88;4940722;28;20572;-78
2023/03/02 05:26:35;;;;;;;31.92;18.77;;;;;;;5.28;84.11;101330.59;4956764;28;20050;-78
2023/03/02 05:29:03;;;;;;;39.72;21.48;;;;;;;5.18;83.87;101312.78;4982276;28;20050;-78
2023/03/02 05:31:43;;;;;;;41.50;20.13;;;;;;;5.11;83.46;101321.00;4973199;28;20324;-77
2023/03/02 05:34:15;;;;;;;39.50;22.10;;;;;;;4.81;83.59;101270.06;4975455;28;20531;-78
2023/03/02 05:36:49;;;;;;;38.05;22.25;;;;;;;4.67;84.10;101253.22;4986275;28;20103;-78
2023/03/02 05:39:22;;;;;;;37.80;20.27;;;;;;;5.13;84.81;101331.44;4962564;28;20084;-79
2023/03/02 05:41:50;;;;;;;41.70;23.83;;;;;;;5.17;84.47;101338.25;4948992;28;20038;-79
2023/03/02 05:44:17;;;;;;;43.90;23.60;;;;;;;5.04;84.31;101309.09;4966209;28;20405;-77
2023/03/02 05:46:44;;;;;;;43.03;23.65;;;;;;;5.27;84.61;101349.13;4972704;28;20045;-79
2023/03/02 05:49:12;;;;;;;45.28;23.77;;;;;;;5.19;84.56;101349.53;4974206;28;20049;-78
2023/03/02 05:51:39;;;;;;;43.83;22.85;;;;;;;5.12;85.03;101327.09;4990825;28;20531;-78
2023/03/02 05:54:06;;;;;;;39.13;22.55;;;;;;;5.20;84.78;101339.88;4999472;28;20102;-78
2023/03/02 05:56:40;;;;;;;40.45;22.65;;;;;;;5.25;84.98;101333.41;5001200;28;20060;-78
2023/03/02 05:59:11;;;;;;;45.15;23.50;;;;;;;5.42;84.02;101350.06;4985935;28;20423;-76
2023/03/02 06:01:41;;;;;;;45.95;26.10;;;;;;;5.50;84.10;101347.84;4986371;28;20058;-77
2023/03/02 06:04:07;;;;;;;36.60;21.80;;;;;;;5.17;83.45;101301.41;4990182;28;20304;-78
2023/03/02 06:06:34;;;;;;;44.67;26.30;;;;;;;5.40;82.99;101338.75;4960458;28;20394;-76
2023/03/02 06:09:01;;;;;;;54.55;29.10;;;;;;;5.48;83.39;101365.50;4987122;28;20080;-78
2023/03/02 06:11:31;;;;;;;48.67;27.33;;;;;;;5.44;84.22;101370.13;4983393;28;20057;-78
2023/03/02 06:14:06;;;;;;;53.55;31.08;;;;;;;5.52;83.65;101377.59;4992600;28;20080;-78
2023/03/02 06:16:34;;;;;;;58.35;33.58;;;;;;;5.46;82.97;101335.78;4984293;28;20367;-79
2023/03/02 06:19:04;;;;;;;64.43;35.35;;;;;;;5.34;82.73;101335.53;5013334;28;20061;-78
2023/03/02 06:21:31;;;;;;;73.78;37.28;;;;;;;5.37;83.33;101337.16;4999112;28;20048;-78
2023/03/02 06:23:58;;;;;;;77.25;37.92;;;;;;;5.25;82.54;101337.84;5001507;28;20049;-79
2023/03/02 06:26:25;;;;;;;69.70;37.70;;;;;;;5.44;83.36;101370.13;4983510;28;20050;-77
2023/03/02 06:28:51;;;;;;;71.93;40.10;;;;;;;5.45;83.02;101371.81;4983235;28;20119;-78
2023/03/02 06:31:20;;;;;;;69.97;37.17;;;;;;;5.04;82.79;101281.94;4971509;28;20479;-77
2023/03/02 06:33:47;;;;;;;67.20;37.65;;;;;;;5.47;82.47;101342.75;4988643;28;20054;-77
2023/03/02 06:36:26;;;;;;;68.55;39.40;;;;;;;5.45;82.66;101355.16;4981652;28;20045;-78
2023/03/02 06:38:53;;;;;;;73.05;38.20;;;;;;;5.48;83.15;101378.69;4962418;28;20189;-78
2023/03/02 06:41:36;;;;;;;69.22;37.65;;;;;;;5.53;83.27;101368.75;4970146;28;20054;-78
2023/03/02 06:44:07;;;;;;;78.55;42.53;;;;;;;5.54;83.19;101359.91;5003036;28;20474;-78
2023/03/02 06:46:34;;;;;;;62.08;35.97;;;;;;;5.44;83.06;101348.19;5005868;28;20045;-78
2023/03/02 06:49:05;;;;;;;72.50;39.65;;;;;;;5.48;82.82;101361.09;4975358;28;20106;-79
2023/03/02 06:51:41;;;;;;;75.45;38.75;;;;;;;5.51;82.88;101370.59;4970559;28;20083;-79
2023/03/02 06:54:08;;;;;;;68.97;37.17;;;;;;;5.49;83.05;101372.50;4993440;28;20443;-78
2023/03/02 06:56:41;;;;;;;66.57;37.55;;;;;;;5.49;83.33;101377.75;4961730;28;20064;-78
2023/03/02 06:59:09;;;;;;;72.32;37.28;;;;;;;5.51;83.82;101371.47;4961424;28;20107;-77
2023/03/02 07:01:39;;;;;;;69.82;35.70;;;;;;;5.45;83.82;101365.69;4953878;28;20049;-77
2023/03/02 07:04:09;;;;;;;66.10;36.55;;;;;;;5.46;83.57;101362.09;4969730;28;20099;-75
2023/03/02 07:06:36;;;;;;;65.18;34.88;;;;;;;5.47;83.34;101342.75;4962599;28;20504;-77
2023/03/02 07:09:06;;;;;;;66.68;35.90;;;;;;;5.64;83.31;101371.63;4954913;28;20107;-78
2023/03/02 07:11:44;;;;;;;70.18;35.47;;;;;;;5.46;83.44;101346.31;4983220;28;20045;-76
2023/03/02 07:14:11;;;;;;;54.38;29.98;;;;;;;5.63;83.54;101359.41;4944968;28;20355;-76
2023/03/02 07:16:48;;;;;;;55.90;31.63;;;;;;;5.45;82.68;101334.09;4969676;28;20049;-76
2023/03/02 07:19:20;;;;;;;57.75;30.40;;;;;;;5.53;82.86;101374.00;4977623;28;20168;-77
2023/03/02 07:21:52;;;;;;;55.88;29.88;;;;;;;5.65;83.08;101378.59;4978594;28;20051;-75
2023/03/02 07:24:23;;;;;;;58.85;30.77;;;;;;;5.47;82.54;101348.03;4982365;28;20374;-77
2023/03/02 07:26:58;;;;;;;61.55;29.58;;;;;;;5.67;82.96;101396.97;4965283;28;20423;-78
2023/03/02 07:29:24;;;;;;;56.72;28.15;;;;;;;5.44;83.62;101380.66;4993289;28;20464;-77
2023/03/02 07:31:55;;;;;;;58.75;32.05;;;;;;;5.38;84.28;101351.16;4975139;28;20053;-77
2023/03/02 07:34:26;;;;;;;52.55;30.20;;;;;;;5.61;83.79;101382.34;4990214;28;20056;-76
2023/03/02 07:36:53;;;;;;;49.35;27.98;;;;;;;5.54;83.71;101370.44;4993279;28;20041;-75
2023/03/02 07:39:20;;;;;;;54.83;30.05;;;;;;;5.63;83.24;101391.03;4958251;28;20052;-76
2023/03/02 07:41:50;;;;;;;64.70;32.67;;;;;;;5.74;83.50;101393.88;4974284;28;20049;-78
2023/03/02 07:44:22;;;;;;;64.32;33.75;;;;;;;5.68;83.34;101388.97;4994669;28;20543;-77
2023/03/02 07:46:51;;;;;;;58.95;32.28;;;;;;;5.63;83.59;101403.31;5003113;28;20087;-76
2023/03/02 07:49:25;;;;;;;64.85;33.58;;;;;;;5.71;83.59;101404.59;5006676;28;20049;-77
2023/03/02 07:51:53;;;;;;;57.65;31.98;;;;;;;5.76;83.25;101420.16;5004593;28;20549;-76
2023/03/02 07:54:29;;;;;;;61.70;32.65;;;;;;;5.72;84.09;101401.03;4985600;28;20049;-77
2023/03/02 07:56:57;;;;;;;58.38;31.63;;;;;;;5.90;83.14;101409.69;4965838;28;20326;-77
2023/03/02 07:59:27;;;;;;;53.03;29.08;;;;;;;5.75;82.26;101371.91;4998677;28;20045;-76
2023/03/02 08:01:56;;;;;;;53.15;29.35;;;;;;;6.10;81.68;101415.66;4981291;28;20201;-78
2023/03/02 08:04:26;;;;;;;54.22;29.27;;;;;;;6.04;82.18;101427.38;4996163;28;20053;-75
2023/03/02 08:06:56;;;;;;;56.13;29.55;;;;;;;5.94;82.91;101423.56;4987264;28;20311;-75
2023/03/02 08:09:35;;;;;;;51.10;29.70;;;;;;;5.95;82.92;101422.66;4979076;28;20049;-78
2023/03/02 08:12:10;;;;;;;49.97;26.58;;;;;;;6.12;82.45;101421.69;4981604;28;20139;-77
2023/03/02 08:14:37;;;;;;;51.15;26.77;;;;;;;6.06;82.38;101416.75;4968648;28;20184;-78
2023/03/02 08:17:06;;;;;;;43.75;25.20;;;;;;;5.97;82.79;101397.03;4986596;28;20049;-77
2023/03/02 08:19:33;;;;;;;50.50;27.90;;;;;;;6.08;82.59;101418.38;4988271;28;20061;-77
2023/03/02 08:22:01;;;;;;;47.45;25.85;;;;;;;5.90;82.46;101388.63;4968875;28;20099;-76
2023/03/02 08:24:28;;;;;;;52.83;26.85;;;;;;;5.86;82.64;101365.16;4968612;28;20367;-76
2023/03/02 08:26:55;;;;;;;54.88;28.27;;;;;;;5.94;82.77;101384.03;4957696;28;20164;-77
2023/03/02 08:29:28;;;;;;;47.90;26.73;;;;;;;5.93;83.26;101383.16;4970946;28;20108;-78
2023/03/02 08:31:57;;;;;;;51.10;26.77;;;;;;;5.77;82.88;101329.63;4991980;28;20884;-76
2023/03/02 08:34:26;;;;;;;48.03;26.52;;;;;;;6.18;82.69;101401.09;4999404;28;20075;-76
2023/03/02 08:36:53;;;;;;;45.97;25.85;;;;;;;6.39;82.62;101403.44;4990984;28;20060;-76
2023/03/02 08:39:23;;;;;;;44.33;24.65;;;;;;;6.48;82.60;101399.38;4980707;28;20060;-77
2023/03/02 08:41:51;;;;;;;47.33;24.88;;;;;;;6.48;81.05;101373.88;4973936;28;20479;-75
2023/03/02 08:44:22;;;;;;;47.33;23.40;;;;;;;6.52;80.79;101370.09;4981466;28;20052;-75
2023/03/02 08:46:56;;;;;;;48.45;28.20;;;;;;;6.09;81.03;101271.59;4992664;28;20132;-79
2023/03/02 08:49:23;;;;;;;47.38;26.17;;;;;;;6.66;81.40;101376.34;4976595;28;20314;-77
2023/03/02 08:51:52;;;;;;;48.13;26.05;;;;;;;6.70;81.33;101362.88;4978442;28;20111;-79
2023/03/02 08:54:20;;;;;;;50.85;27.90;;;;;;;6.77;80.33;101373.88;4977078;28;20570;-77
2023/03/02 08:56:47;;;;;;;52.78;28.05;;;;;;;6.90;80.36;101389.84;4996607;28;20046;-78
2023/03/02 08:59:16;;;;;;;53.95;29.05;;;;;;;6.58;80.60;101318.78;4941315;28;20060;-75
2023/03/02 09:01:47;;;;;;;57.95;31.55;;;;;;;6.97;79.41;101381.47;4991359;28;20064;-78
2023/03/02 09:04:20;;;;;;;54.50;31.45;;;;;;;6.97;79.77;101407.84;5004217;28;20064;-77
2023/03/02 09:06:47;;;;;;;59.65;34.55;;;;;;;7.12;79.45;101389.38;4984155;28;20155;-76
2023/03/02 09:09:27;;;;;;;65.55;34.85;;;;;;;6.89;79.21;101367.88;4973150;28;20053;-78
2023/03/02 09:11:54;;;;;;;71.82;37.05;;;;;;;7.00;78.75;101390.97;5003160;28;20061;-77
2023/03/02 09:14:21;;;;;;;59.47;35.15;;;;;;;6.67;79.46;101317.34;4986017;28;20114;-75
2023/03/02 09:16:48;;;;;;;73.88;39.17;;;;;;;7.06;79.01;101380.91;4975541;28;20335;-78
2023/03/02 09:19:18;;;;;;;67.07;40.08;;;;;;;7.10;79.91;101380.69;4983314;28;20048;-77
2023/03/02 09:21:50;;;;;;;75.80;40.67;;;;;;;6.99;79.83;101345.25;5008730;28;20086;-78
2023/03/02 09:24:19;;;;;;;68.75;39.28;;;;;;;7.40;79.29;101362.06;4991080;28;20060;-78
2023/03/02 09:26:57;;;;;;;75.80;39.40;;;;;;;7.55;78.07;101365.53;4993496;28;20044;-79
2023/03/02 09:29:26;;;;;;;79.93;40.65;;;;;;;7.57;77.53;101353.06;4994919;28;20048;-77
2023/03/02 09:31:53;;;;;;;76.65;38.67;;;;;;;7.40;77.31;101320.69;4996022;28;20565;-77
2023/03/02 09:34:20;;;;;;;81.93;44.15;;;;;;;7.74;77.18;101373.97;4982902;28;20356;-78
2023/03/02 09:36:53;;;;;;;77.57;42.85;;;;;;;7.80;77.78;101391.25;4995590;28;20049;-77
2023/03/02 09:39:25;;;;;;;73.55;41.95;;;;;;;7.73;76.88;101369.66;4980780;28;20073;-78
2023/03/02 09:42:13;;;;;;;76.63;40.28;;;;;;;7.67;77.77;101355.03;4984288;28;20049;-79
2023/03/02 09:44:58;;;;;;;78.47;43.75;;;;;;;7.90;76.99;101379.13;4947677;28;20053;-77
2023/03/02 09:47:49;;;;;;;74.32;42.30;;;;;;;7.79;77.02;101376.31;4960458;28;20252;-79
2023/03/02 09:50:40;;;;;;;71.57;41.15;;;;;;;7.81;77.33;101387.66;4999473;28;20049;-76
2023/03/02 09:53:29;;;;;;;79.45;41.70;;;;;;;7.78;77.80;101388.69;5003250;28;20270;-75
2023/03/02 09:56:01;;;;;;;78.13;42.30;;;;;;;7.72;78.42;101394.38;4990175;28;20041;-75
2023/03/02 09:58:39;;;;;;;69.88;41.22;;;;;;;7.68;78.26;101390.25;4985351;28;20132;-75
2023/03/02 10:01:15;;;;;;;75.32;42.08;;;;;;;7.80;78.43;101397.38;4983479;28;20450;-78
2023/03/02 10:04:01;;;;;;;70.53;42.15;;;;;;;7.62;78.29;101358.91;4975520;28;20528;-77
2023/03/02 10:06:33;;;;;;;62.90;36.70;;;;;;;7.86;77.63;101381.13;5014566;28;20080;-75
2023/03/02 10:09:00;;;;;;;;;;;;;;;7.92;77.46;101386.00;4984602;28;20300;-75
2023/03/02 10:11:32;;;;;;;59.00;34.92;;;;;;;7.87;77.46;101388.09;4994841;28;19921;-77
2023/03/02 10:14:23;;;;;;;53.33;32.40;;;;;;;7.90;77.21;101395.81;4995161;28;20068;-78
2023/03/02 10:17:37;;;;;;;60.63;34.40;;;;;;;7.87;77.33;101388.09;4978584;28;20045;-77
2023/03/02 10:20:25;;;;;;;54.03;32.25;;;;;;;8.08;75.83;101390.28;4973607;28;20498;-76
2023/03/02 10:23:33;;;;;;;53.13;32.78;;;;;;;8.14;76.48;101400.47;4980850;28;20053;-78
2023/03/02 10:26:27;;;;;;;59.53;33.42;;;;;;;7.91;75.74;101381.69;4958826;28;20053;-76
2023/03/02 10:29:19;;;;;;;63.58;35.67;;;;;;;7.45;75.92;101323.88;4967674;28;20055;-77
2023/03/02 10:31:56;;;;;;;55.42;34.13;;;;;;;7.47;77.37;101347.53;4994024;28;20144;-74
2023/03/02 10:34:28;;;;;;;53.58;32.90;;;;;;;7.59;77.82;101377.59;5007097;28;20041;-77
2023/03/02 10:36:55;;;;;;;59.08;35.33;;;;;;;7.85;77.65;101405.00;5008748;28;20211;-78
2023/03/02 10:39:28;;;;;;;64.85;34.10;;;;;;;7.88;77.46;101403.00;4980528;28;20530;-76
2023/03/02 10:42:07;;;;;;;55.72;33.60;;;;;;;7.91;77.04;101391.38;4963839;28;20373;-76
2023/03/02 10:44:41;;;;;;;55.65;34.83;;;;;;;7.96;76.47;101399.00;4987482;28;20045;-76
2023/03/02 10:47:28;;;;;;;57.60;33.00;;;;;;;7.73;76.42;101359.06;4989997;28;20088;-76
2023/03/02 10:50:03;;;;;;;54.95;34.72;;;;;;;8.00;76.97;101405.81;5010457;28;20178;-76
2023/03/02 10:52:33;;;;;;;50.67;31.55;;;;;;;7.87;76.87;101376.69;4999188;28;20304;-75
2023/03/02 10:55:13;;;;;;;54.00;33.15;;;;;;;7.88;76.75;101394.22;4991263;28;20616;-76
2023/03/02 10:57:42;;;;;;;56.13;33.05;;;;;;;7.88;76.85;101391.59;4990267;28;20045;-77
2023/03/02 11:00:18;;;;;;;59.85;34.55;;;;;;;7.55;77.63;101342.63;4987643;28;20400;-77
2023/03/02 11:03:03;;;;;;;55.70;32.85;;;;;;;7.83;77.86;101370.72;4970173;28;20080;-77
2023/03/02 11:05:32;;;;;;;52.47;31.60;;;;;;;7.75;77.14;101354.53;4990204;28;20060;-77
2023/03/02 11:08:09;;;;;;;53.42;32.60;;;;;;;7.75;77.14;101346.59;4979072;28;20108;-77
2023/03/02 11:11:02;;;;;;;54.73;34.63;;;;;;;8.13;76.29;101404.03;4957707;28;20376;-78
2023/03/02 11:13:41;;;;;;;51.25;32.03;;;;;;;7.96;77.20;101391.09;4942977;28;20441;-75
2023/03/02 11:16:17;;;;;;;58.97;34.17;;;;;;;7.31;77.01;101284.28;4996285;28;20085;-77
2023/03/02 11:19:00;;;;;;;52.05;33.47;;;;;;;8.06;77.74;101408.06;4967037;28;20060;-77
2023/03/02 11:21:39;;;;;;;55.40;32.85;;;;;;;7.82;77.05;101360.28;5017612;28;20045;-78
2023/03/02 11:24:35;;;;;;;;;;;;;;;8.12;76.42;101408.50;5006323;28;20523;-76
2023/03/02 11:27:13;;;;;;;53.25;31.63;;;;;;;7.66;76.88;101336.63;5000556;28;19928;-76
2023/03/02 11:29:56;;;;;;;54.47;31.88;;;;;;;7.64;76.18;101333.22;5007273;28;20060;-77
2023/03/02 11:32:47;;;;;;;47.85;30.70;;;;;;;8.03;76.65;101397.66;5015838;28;20510;-77
2023/03/02 11:35:37;;;;;;;47.83;32.23;;;;;;;8.04;76.70;101394.94;4989429;28;20111;-78
2023/03/02 11:38:12;;;;;;;54.75;31.83;;;;;;;6.95;76.62;101208.28;4975719;28;20333;-78
2023/03/02 11:41:28;;;;;;;49.08;32.20;;;;;;;8.07;77.25;101388.59;4964714;28;20106;-76
2023/03/02 11:44:11;;;;;;;52.90;33.72;;;;;;;8.04;77.24;101383.50;4902542;28;20125;-78
2023/03/02 11:46:49;;;;;;;54.58;30.75;;;;;;;8.27;76.51;101403.97;4919166;28;20046;-76
2023/03/02 11:49:44;;;;;;;54.85;33.15;;;;;;;8.01;75.95;101370.47;4980110;28;20373;-75